METAR AND TAF INFORMATION
METAR FOR LFML
ADDS - METARS form results

(2339 UTC 28 January 2023)
Data provider http://aviationweather.gov/metar/data/
 
METAR text: LFML 282330Z AUTO VRB03KT CAVOK M03/M05 Q1022 NOSIG
Conditions at: LFML (MARSEILLE/MARIGN, FR) observed 2330 UTC 28 January 2023
Temperature: -3.0°C (27°F)
Dewpoint: -5.0°C (23°F) [RH = 86%]
Pressure (altimeter): 30.18 inches Hg (1022.0 mb)
Winds: variable direction winds at 3 MPH (3 knots; 1.5 m/s)
Visibility: 6 or more miles (10+ km)
Ceiling: ceiling and visibility are OK
Clouds: unknown
Weather: no significant weather observed at this time

METAR text: LFML 282300Z AUTO 34004KT CAVOK M01/M03 Q1022 NOSIG
Conditions at: LFML (MARSEILLE/MARIGN, FR) observed 2300 UTC 28 January 2023
Temperature: -1.0°C (30°F)
Dewpoint: -3.0°C (27°F) [RH = 86%]
Pressure (altimeter): 30.18 inches Hg (1022.0 mb)
Winds: from the NNW (340 degrees) at 5 MPH (4 knots; 2.1 m/s)
Visibility: 6 or more miles (10+ km)
Ceiling: ceiling and visibility are OK
Clouds: unknown
Weather: no significant weather observed at this time

Forecast for: LFML (MARSEILLE/MARIGN, FR)
Text: TAF LFML 282000Z 2821/3003 31007KT CAVOK TX10/2914Z TNM03/2905Z
Forecast period: 2100 UTC 28 January 2023 to 0300 UTC 30 January 2023
Forecast type: FROM: standard forecast or significant change
Winds: from the NW (310 degrees) at 8 MPH (7 knots; 3.6 m/s)
Visibility: 6 or more miles (10+ km)
Ceiling: unknown
Clouds: missing
Weather: no significant weather forecast for this period

 AIRPORT MAP

 RUNWAY INFORMATION
Runway 13R Runway length 7776 ft Runway width 148 ft
Runway elevation 8 ft Runway displaced threshold 0 ft Runway heading 134
Runway 31L Runway length 7776 ft Runway width 148 ft
Runway elevation 61 ft Runway displaced threshold 345 ft Runway heading 314
Runway 13L Runway length 11483 ft Runway width 148 ft
Runway elevation 8 ft Runway displaced threshold 1116 ft Runway heading 134
Runway 31R Runway length 11483 ft Runway width 148 ft
Runway elevation 53 ft Runway displaced threshold 2165 ft Runway heading 314

 AIRPORT FREQUENCIES
Type APP Name APP/RADAR Frequency 120.2 MHZ
Type ATIS Name ATIS Frequency 125.35 MHZ
Type GND Name GND Frequency 121.9 MHZ
Type INFO Name INFO Frequency 118.85 MHZ
Type PFLT Name PERFLIGHT Frequency 121.725 MHZ
Type TWR Name TWR Frequency 118.375 MHZ

 AIRPORT NEAR NAVIGATION AIDS
Type VOR-DME Name Marseille/Provence Frequency 108800 KHZ